Date,TemperatureHighF,TemperatureAvgF,TemperatureLowF,DewpointHighF,DewpointAvgF,DewpointLowF,HumidityHigh,HumidityAvg,HumidityLow,PressureMaxIn,PressureMinIn,WindSpeedMaxMPH,WindSpeedAvgMPH,GustSpeedMaxMPH,PrecipitationSumIn
2013-1-1,31,24,15,22,18,7,85,76,69,30.19,30.09,10,3,16,0.00
2013-1-2,30,20,12,18,11,5,76,68,49,30.22,30.13,17,4,17,0.00
2013-1-3,31,26,18,25,19,11,82,75,68,30.26,30.11,13,3,13,0.00
2013-1-4,37,26,15,24,18,10,82,75,58,30.26,30.15,14,3,14,0.00
2013-1-5,37,30,21,32,25,17,90,82,68,30.26,29.98,16,5,16,0.00
2013-1-6,36,31,24,32,25,19,87,79,71,30.34,29.92,17,4,17,0.00
2013-1-7,39,29,19,26,22,15,87,76,56,30.36,30.13,22,8,22,0.00
2013-1-8,42,34,28,32,27,23,84,77,67,30.20,30.06,17,6,17,0.00
2013-1-9,52,42,27,36,28,18,81,61,32,30.50,30.04,22,5,22,0.00
2013-1-10,44,34,23,40,27,17,93,74,55,30.51,29.93,20,5,20,0.00
2013-1-11,53,50,42,51,47,40,95,91,87,29.93,29.69,18,8,18,0.00
2013-1-12,57,48,35,50,41,31,88,79,59,29.98,29.77,19,5,19,0.00
2013-1-13,36,28,16,34,25,10,93,88,78,30.25,29.85,14,3,14,0.00
2013-1-14,27,19,13,19,13,9,83,78,68,30.46,30.24,7,1,7,0.00
2013-1-15,36,22,12,27,16,8,87,78,66,30.42,30.11,8,1,8,0.00
2013-1-16,37,28,17,28,21,13,88,75,57,30.11,29.86,17,3,17,0.00
2013-1-17,35,29,19,30,18,10,84,64,48,30.40,30.05,14,3,14,0.00
2013-1-18,40,30,18,29,22,10,80,70,61,30.43,29.97,30,8,30,0.00
2013-1-19,50,42,34,37,32,13,74,68,44,29.98,29.74,28,7,28,0.00
2013-1-20,34,21,17,12,7,3,63,54,42,30.28,29.89,26,4,28,0.00
2013-1-21,18,15,13,7,4,2,75,63,53,30.09,30.02,16,5,16,0.00
2013-1-22,16,11,3,0,-2,-6,67,55,46,30.31,30.21,13,3,13,0.00
2013-1-23,22,17,11,14,6,-1,81,62,57,30.22,30.00,17,3,17,0.00
2013-1-24,25,19,15,18,12,6,88,75,60,30.51,30.16,15,3,15,0.00
2013-1-25,28,23,18,21,16,10,81,72,61,30.27,29.88,13,4,13,0.00
2013-1-26,31,24,18,21,16,11,77,71,61,30.29,29.13,12,2,12,0.00
2013-1-27,35,29,22,33,24,16,92,80,72,30.36,29.04,22,7,22,0.00
2013-1-28,50,44,36,48,43,33,96,94,88,29.98,29.85,16,4,16,0.00
2013-1-29,59,56,48,57,54,47,97,94,90,29.87,29.42,24,8,24,0.00
2013-1-30,53,38,24,52,35,18,97,90,76,29.62,29.20,21,4,21,0.00
2013-1-31,24,17,9,19,10,1,85,74,66,30.13,29.62,22,7,22,0.00